Time;durP1;ratioP1;P1;durP2;ratioP2;P2;SDS_P1;SDS_P2;PMS_P1;PMS_P2;Temp;Humidity;BMP_temperature;BMP_pressure;BME280_temperature;BME280_humidity;BME280_pressure;Samples;Min_cycle;Max_cycle;Signal;HPM_P1;HPM_P2
2024/03/01 00:00:20;;;;;;;56.00;32.90;;;;;;;7.47;75.87;98987.92;105623;1257;97983;-78
2024/03/01 00:03:06;;;;;;;56.60;32.80;;;;;;;7.47;75.93;98988.48;105290;1257;96588;-78
2024/03/01 00:05:33;;;;;;;53.90;32.00;;;;;;;7.45;75.92;98986.66;105456;1254;96588;-78
2024/03/01 00:08:00;;;;;;;52.90;30.10;;;;;;;7.46;75.76;98989.24;105698;1255;96943;-79
2024/03/01 00:10:27;;;;;;;52.30;31.10;;;;;;;7.46;75.85;98986.24;105644;1256;96606;-78
2024/03/01 00:12:54;;;;;;;54.30;32.20;;;;;;;7.45;75.84;98986.45;105844;1256;96686;-78
2024/03/01 00:15:20;;;;;;;;;;;;;;;7.44;75.74;98983.31;105694;1254;96660;-76
2024/03/01 00:17:46;;;;;;;53.40;28.80;;;;;;;7.42;75.89;98981.88;105586;1256;110066;-77
2024/03/01 00:20:14;;;;;;;;;;;;;;;7.41;75.93;98979.09;105630;1257;97219;-77
2024/03/01 00:22:40;;;;;;;52.30;31.00;;;;;;;7.39;75.84;98977.27;105521;1254;97131;-80
2024/03/01 00:25:10;;;;;;;56.90;31.40;;;;;;;7.38;75.85;98973.80;105303;1257;97534;-77
2024/03/01 00:27:37;;;;;;;54.50;29.40;;;;;;;7.35;75.94;98968.89;105629;1254;96607;-76
2024/03/01 00:30:03;;;;;;;;;;;;;;;7.31;75.73;98965.08;105313;1257;97421;-77
2024/03/01 00:32:32;;;;;;;56.60;30.60;;;;;;;7.26;75.91;98961.30;105771;1254;96605;-76
2024/03/01 00:34:58;;;;;;;49.00;27.20;;;;;;;7.25;75.84;98963.50;105719;1256;96994;-77
2024/03/01 00:37:25;;;;;;;;;;;;;;;7.23;75.80;98965.20;105460;1257;96673;-77
2024/03/01 00:39:52;;;;;;;48.10;26.80;;;;;;;7.20;76.00;98963.65;105598;1256;97050;-77
2024/03/01 00:42:18;;;;;;;52.70;28.70;;;;;;;7.18;76.00;98961.98;105841;1255;96608;-78
2024/03/01 00:44:45;;;;;;;;;;;;;;;7.16;75.72;98955.94;105382;1252;108161;-78
2024/03/01 00:47:11;;;;;;;49.30;27.80;;;;;;;7.13;76.01;98958.05;105731;1256;97947;-78
2024/03/01 00:49:38;;;;;;;;;;;;;;;7.11;76.01;98954.30;105544;1256;97118;-78
2024/03/01 00:52:04;;;;;;;47.90;28.40;;;;;;;7.08;75.90;98951.64;105805;1264;96575;-81
2024/03/01 00:54:31;;;;;;;48.60;28.40;;;;;;;7.06;75.92;98945.45;105997;1256;107550;-77
2024/03/01 00:56:57;;;;;;;54.30;29.40;;;;;;;7.05;75.95;98943.03;105740;1256;97922;-77
2024/03/01 00:59:23;;;;;;;;;;;;;;;7.05;75.91;98937.58;105772;1255;96583;-77
2024/03/01 01:01:50;;;;;;;52.40;26.30;;;;;;;7.02;75.97;98940.92;105808;1256;96610;-78
2024/03/01 01:04:17;;;;;;;48.50;25.90;;;;;;;7.01;75.89;98935.86;105425;1256;96698;-77
2024/03/01 01:06:43;;;;;;;48.90;26.40;;;;;;;7.00;75.89;98927.05;105692;1254;96597;-78
2024/03/01 01:09:10;;;;;;;51.40;28.00;;;;;;;6.99;75.99;98928.35;105804;1255;96745;-79
2024/03/01 01:11:36;;;;;;;52.10;28.00;;;;;;;6.98;75.89;98916.09;105961;1253;97524;-78
2024/03/01 01:14:03;;;;;;;56.50;30.00;;;;;;;6.98;76.05;98916.27;105483;1263;97519;-77
2024/03/01 01:16:29;;;;;;;52.20;28.30;;;;;;;6.97;75.88;98919.48;105554;1257;96638;-77
2024/03/01 01:18:56;;;;;;;56.90;29.70;;;;;;;6.95;75.88;98921.20;105527;1259;96705;-78
2024/03/01 01:21:23;;;;;;;56.50;28.90;;;;;;;6.93;75.98;98917.64;105518;1257;97901;-76
2024/03/01 01:23:50;;;;;;;;;;;;;;;6.92;76.16;98908.38;105211;1257;97529;-77
2024/03/01 01:26:17;;;;;;;60.00;30.80;;;;;;;6.88;75.99;98908.07;105811;1257;96568;-77
2024/03/01 01:28:44;;;;;;;54.60;26.50;;;;;;;6.88;75.95;98907.55;105550;1256;96527;-77
2024/03/01 01:31:10;;;;;;;;;;;;;;;6.87;76.24;98904.42;105790;1256;96488;-77
2024/03/01 01:33:36;;;;;;;58.30;27.10;;;;;;;6.83;76.23;98898.45;105424;1265;98091;-77
2024/03/01 01:36:03;;;;;;;;;;;;;;;6.85;76.13;98890.59;105416;1264;96635;-77
2024/03/01 01:38:29;;;;;;;60.20;28.70;;;;;;;6.81;76.11;98893.52;105587;1256;96619;-79
2024/03/01 01:40:56;;;;;;;;;;;;;;;6.79;76.29;98897.48;105853;1254;96592;-78
2024/03/01 01:43:22;;;;;;;47.10;25.80;;;;;;;6.78;76.17;98900.05;105370;1256;96590;-77
2024/03/01 01:45:49;;;;;;;;;;;;;;;6.78;76.17;98890.52;105848;1256;96626;-76
2024/03/01 01:48:15;;;;;;;48.40;24.70;;;;;;;6.78;76.23;98882.70;105589;1256;96683;-78
2024/03/01 01:50:42;;;;;;;58.80;30.90;;;;;;;6.79;76.40;98876.15;105435;1254;97282;-80
2024/03/01 01:53:09;;;;;;;57.40;28.60;;;;;;;6.79;76.29;98874.94;105826;1257;96606;-77
2024/03/01 01:55:47;;;;;;;58.20;29.80;;;;;;;6.77;76.19;98873.60;105557;1254;107251;-79
2024/03/01 01:58:14;;;;;;;50.30;25.50;;;;;;;6.75;76.11;98870.42;105546;1254;97172;-76
2024/03/01 02:00:41;;;;;;;56.80;27.50;;;;;;;6.72;76.15;98868.63;105921;1253;96631;-78
2024/03/01 02:03:07;;;;;;;;;;;;;;;6.69;76.11;98864.62;105311;1257;96606;-80
2024/03/01 02:05:34;;;;;;;48.00;26.80;;;;;;;6.65;76.22;98871.54;105609;1255;97928;-79
2024/03/01 02:08:01;;;;;;;51.30;26.50;;;;;;;6.65;76.26;98867.83;105654;1265;97502;-76
2024/03/01 02:10:27;;;;;;;57.30;27.20;;;;;;;6.64;76.31;98866.27;105755;1254;97922;-78
2024/03/01 02:13:00;;;;;;;49.40;26.60;;;;;;;6.63;76.23;98861.59;105941;1256;96641;-78
2024/03/01 02:15:27;;;;;;;54.80;26.80;;;;;;;6.61;76.16;98861.21;105685;1254;96565;-78
2024/03/01 02:17:55;;;;;;;55.10;29.00;;;;;;;6.57;76.25;98860.91;105508;1256;107331;-77
2024/03/01 02:20:26;;;;;;;48.70;27.80;;;;;;;6.52;76.10;98858.39;105725;1256;97747;-77
2024/03/01 02:22:59;;;;;;;55.90;27.00;;;;;;;6.48;76.11;98855.10;105709;1259;96680;-78
2024/03/01 02:25:26;;;;;;;54.40;27.00;;;;;;;6.45;76.32;98857.21;105587;1257;109884;-78
2024/03/01 02:27:53;;;;;;;47.70;27.00;;;;;;;6.42;76.18;98856.86;105948;1257;97860;-78
2024/03/01 02:30:19;;;;;;;51.90;27.40;;;;;;;6.39;76.34;98855.24;105581;1253;96602;-77
2024/03/01 02:32:46;;;;;;;53.70;28.70;;;;;;;6.35;76.27;98853.71;105683;1268;96577;-79
2024/03/01 02:35:12;;;;;;;;;;;;;;;6.31;76.13;98849.77;105951;1254;96734;-77
2024/03/01 02:37:39;;;;;;;59.50;30.10;;;;;;;6.27;76.30;98848.59;105731;1253;96493;-76
2024/03/01 02:40:06;;;;;;;;;;;;;;;6.25;76.27;98843.40;105732;1254;97074;-77
2024/03/01 02:42:33;;;;;;;53.40;27.10;;;;;;;6.21;76.30;98847.48;105858;1257;97549;-77
2024/03/01 02:45:01;;;;;;;48.40;24.70;;;;;;;6.20;76.23;98850.02;106005;1256;96596;-77
2024/03/01 02:47:29;;;;;;;56.70;26.60;;;;;;;6.16;76.19;98848.50;105711;1256;96683;-78
2024/03/01 02:49:56;;;;;;;61.10;30.00;;;;;;;6.13;76.31;98847.25;106064;1256;96590;-77
2024/03/01 02:52:22;;;;;;;57.90;28.90;;;;;;;6.09;76.21;98847.81;105812;1256;96577;-76
2024/03/01 02:54:49;;;;;;;;;;;;;;;6.06;76.24;98851.86;106110;1254;96607;-77
2024/03/01 02:57:15;;;;;;;55.50;28.00;;;;;;;6.04;76.18;98849.86;105266;1267;98066;-78
2024/03/01 02:59:42;;;;;;;62.20;29.60;;;;;;;6.04;76.31;98849.00;105208;1254;96559;-78
2024/03/01 03:02:08;;;;;;;;;;;;;;;6.02;76.30;98844.20;105412;1253;98287;-77
2024/03/01 03:04:34;;;;;;;54.80;26.30;;;;;;;5.97;76.28;98845.48;105613;1269;96581;-77
2024/03/01 03:07:01;;;;;;;;;;;;;;;5.94;76.39;98845.10;105243;1254;96674;-77
2024/03/01 03:09:36;;;;;;;56.90;28.10;;;;;;;5.90;76.42;98841.49;105660;1256;97726;-78
2024/03/01 03:12:03;;;;;;;54.10;27.60;;;;;;;5.89;76.41;98845.09;105784;1259;97956;-79
2024/03/01 03:14:29;;;;;;;54.90;28.30;;;;;;;5.87;76.32;98840.23;105446;1256;96635;-77
2024/03/01 03:16:55;;;;;;;;;;;;;;;5.86;76.26;98843.30;105340;1259;96630;-77
2024/03/01 03:19:23;;;;;;;59.60;28.20;;;;;;;5.81;76.37;98840.39;105584;1259;97118;-78
2024/03/01 03:21:49;;;;;;;67.20;29.60;;;;;;;5.79;76.24;98832.27;105696;1256;107597;-78
2024/03/01 03:24:17;;;;;;;;;;;;;;;5.76;76.25;98834.17;105510;1256;96587;-78
2024/03/01 03:26:44;;;;;;;65.00;30.20;;;;;;;5.72;76.33;98831.76;105663;1256;96450;-78
2024/03/01 03:29:11;;;;;;;64.60;31.00;;;;;;;5.71;76.44;98834.29;106102;1253;96651;-77
2024/03/01 03:31:37;;;;;;;;;;;;;;;5.71;76.52;98832.17;105787;1256;97944;-77
2024/03/01 03:34:04;;;;;;;67.20;32.10;;;;;;;5.71;76.72;98832.70;105496;1266;97550;-77
2024/03/01 03:36:30;;;;;;;64.30;29.20;;;;;;;5.72;76.71;98828.07;105443;1254;96590;-76
2024/03/01 03:38:57;;;;;;;;;;;;;;;5.74;76.59;98828.66;105591;1256;108418;-77
2024/03/01 03:41:23;;;;;;;56.90;27.00;;;;;;;5.72;76.58;98827.52;105467;1254;96593;-77
2024/03/01 03:43:50;;;;;;;;;;;;;;;5.72;76.60;98829.46;105263;1264;96766;-77
2024/03/01 03:46:16;;;;;;;64.30;30.50;;;;;;;5.72;76.60;98830.20;105565;1262;96608;-77
2024/03/01 03:48:43;;;;;;;;;;;;;;;5.73;76.77;98827.31;105753;1256;96609;-78
2024/03/01 03:51:09;;;;;;;69.80;30.60;;;;;;;5.71;76.56;98825.34;105680;1256;96494;-78
2024/03/01 03:53:36;;;;;;;64.10;29.90;;;;;;;5.72;76.68;98831.92;105438;1265;96645;-78
2024/03/01 03:56:03;;;;;;;;;;;;;;;5.74;76.65;98837.64;105452;1259;96593;-78
2024/03/01 03:58:30;;;;;;;77.90;32.30;;;;;;;5.74;76.75;98839.56;105698;1256;97921;-78
2024/03/01 04:00:56;;;;;;;67.30;28.80;;;;;;;5.75;76.84;98832.46;105837;1256;96594;-77
2024/03/01 04:03:23;;;;;;;66.70;29.60;;;;;;;5.79;76.82;98834.37;105583;1266;105790;-76
2024/03/01 04:05:49;;;;;;;;;;;;;;;5.81;76.91;98833.88;105663;1256;96684;-78
2024/03/01 04:08:16;;;;;;;65.70;31.10;;;;;;;5.82;77.06;98835.42;105687;1260;96609;-77
2024/03/01 04:10:42;;;;;;;;;;;;;;;5.85;76.98;98838.47;105427;1255;96677;-78
2024/03/01 04:13:09;;;;;;;64.80;29.50;;;;;;;5.86;76.90;98836.11;105572;1256;105825;-77
2024/03/01 04:15:35;;;;;;;75.90;33.80;;;;;;;5.88;76.79;98838.42;105999;1253;96693;-78
2024/03/01 04:18:02;;;;;;;;;;;;;;;5.89;76.86;98834.35;105956;1255;96590;-78
2024/03/01 04:20:28;;;;;;;76.50;32.20;;;;;;;5.87;76.92;98837.27;105657;1257;96605;-76
2024/03/01 04:22:54;;;;;;;;;;;;;;;5.89;76.83;98841.19;105522;1257;107753;-79
2024/03/01 04:25:23;;;;;;;63.40;29.00;;;;;;;5.89;77.22;98837.67;105725;1257;97441;-77
2024/03/01 04:27:50;;;;;;;69.50;30.10;;;;;;;5.91;76.84;98839.84;105664;1255;96664;-78
2024/03/01 04:30:16;;;;;;;;;;;;;;;5.91;76.83;98842.31;105964;1254;96585;-77
2024/03/01 04:32:43;;;;;;;67.70;30.10;;;;;;;5.89;77.00;98843.48;105511;1257;96638;-78
2024/03/01 04:35:09;;;;;;;;;;;;;;;5.89;77.11;98839.10;105744;1257;96618;-77
2024/03/01 04:37:36;;;;;;;74.40;33.00;;;;;;;5.88;77.18;98839.48;105415;1256;96584;-78
2024/03/01 04:40:05;;;;;;;63.60;30.70;;;;;;;5.90;77.01;98837.09;105744;1254;97522;-78
2024/03/01 04:42:31;;;;;;;66.00;31.00;;;;;;;5.90;77.09;98839.73;105925;1257;96591;-77
2024/03/01 04:44:58;;;;;;;;;;;;;;;5.90;77.01;98839.89;105971;1257;96642;-79
2024/03/01 04:47:24;;;;;;;67.70;30.60;;;;;;;5.88;77.10;98838.11;105700;1257;97912;-78
2024/03/01 04:49:51;;;;;;;62.70;30.10;;;;;;;5.88;77.07;98833.31;105619;1267;96644;-78
2024/03/01 04:52:17;;;;;;;;;;;;;;;5.86;76.81;98830.08;105743;1256;97457;-76
2024/03/01 04:54:44;;;;;;;70.00;32.70;;;;;;;5.84;76.99;98837.27;105770;1256;97044;-78
2024/03/01 04:57:10;;;;;;;75.80;32.50;;;;;;;5.83;76.99;98839.60;105727;1256;96593;-77
2024/03/01 04:59:39;;;;;;;;;;;;;;;5.82;76.92;98845.29;105582;1275;96773;-78
2024/03/01 05:02:06;;;;;;;69.40;32.90;;;;;;;5.79;77.02;98846.86;105944;1254;97222;-76
2024/03/01 05:04:34;;;;;;;63.90;28.10;;;;;;;5.78;77.27;98847.08;105765;1256;97097;-75
2024/03/01 05:07:02;;;;;;;68.70;31.10;;;;;;;5.78;77.02;98843.18;105786;1256;96582;-79
2024/03/01 05:09:29;;;;;;;66.40;30.90;;;;;;;5.78;77.14;98842.19;105730;1256;96523;-76
2024/03/01 05:11:56;;;;;;;71.10;33.80;;;;;;;5.78;77.24;98849.35;105594;1250;96532;-76
2024/03/01 05:14:24;;;;;;;66.30;31.60;;;;;;;5.78;77.10;98848.46;105719;1256;97407;-77
2024/03/01 05:16:50;;;;;;;;;;;;;;;5.80;77.27;98849.10;106502;1252;97081;-77
2024/03/01 05:19:16;;;;;;;66.40;29.00;;;;;;;5.80;77.37;98853.32;108739;1253;94540;-72
2024/03/01 05:21:43;;;;;;;67.10;30.60;;;;;;;5.81;77.21;98846.36;108839;1251;94548;-71
2024/03/01 05:24:13;;;;;;;72.50;31.10;;;;;;;5.82;77.48;98843.86;108729;1253;95886;-77
2024/03/01 05:26:44;;;;;;;60.60;28.70;;;;;;;5.83;77.22;98846.09;108746;1250;95489;-77
2024/03/01 05:29:10;;;;;;;;;;;;;;;5.86;77.40;98853.34;108754;1251;94623;-77
2024/03/01 05:31:50;;;;;;;69.00;31.40;;;;;;;5.88;77.23;98851.47;108149;1255;96565;-79
2024/03/01 05:34:24;;;;;;;59.70;26.70;;;;;;;5.91;77.22;98849.17;105563;1256;96568;-77
2024/03/01 05:36:51;;;;;;;63.20;30.00;;;;;;;5.93;77.52;98853.79;105862;1266;96513;-79
2024/03/01 05:39:18;;;;;;;69.20;32.10;;;;;;;5.96;77.28;98862.09;105956;1256;96581;-78
2024/03/01 05:41:45;;;;;;;67.10;30.60;;;;;;;5.98;77.47;98862.67;105851;1256;96601;-79
2024/03/01 05:44:15;;;;;;;67.80;30.90;;;;;;;6.00;77.34;98858.89;105199;1254;96642;-77
2024/03/01 05:46:43;;;;;;;67.40;31.80;;;;;;;6.02;77.40;98858.48;105880;1251;96642;-77
2024/03/01 05:49:10;;;;;;;69.70;32.20;;;;;;;6.04;77.45;98859.73;105622;1251;97109;-77
2024/03/01 05:51:37;;;;;;;68.80;30.50;;;;;;;6.04;77.42;98858.00;105928;1256;96688;-78
2024/03/01 05:54:04;;;;;;;68.50;31.60;;;;;;;6.04;77.58;98857.27;105730;1267;96644;-79
2024/03/01 05:56:30;;;;;;;62.40;28.60;;;;;;;6.06;77.56;98858.07;105788;1254;97055;-77
2024/03/01 05:58:57;;;;;;;;;;;;;;;6.06;77.43;98859.10;105765;1256;97500;-79
2024/03/01 06:01:24;;;;;;;62.80;28.40;;;;;;;6.05;77.54;98856.35;106074;1255;97013;-78
2024/03/01 06:03:53;;;;;;;67.30;30.50;;;;;;;6.07;77.67;98861.33;105673;1257;107586;-78
2024/03/01 06:06:20;;;;;;;64.70;26.90;;;;;;;6.10;77.73;98866.27;105594;1256;96587;-82
2024/03/01 06:08:52;;;;;;;66.60;31.40;;;;;;;6.12;77.63;98868.98;106022;1256;96896;-77
2024/03/01 06:11:37;;;;;;;65.50;28.10;;;;;;;6.11;77.69;98865.67;106115;1257;110211;-78
2024/03/01 06:14:05;;;;;;;64.70;31.10;;;;;;;6.13;77.60;98872.80;105315;1266;97520;-79
2024/03/01 06:16:51;;;;;;;66.00;28.90;;;;;;;6.13;77.58;98877.02;105664;1260;107523;-76
2024/03/01 06:19:31;;;;;;;67.20;29.40;;;;;;;6.14;77.61;98874.13;105929;1258;96734;-78
2024/03/01 06:22:07;;;;;;;63.90;29.40;;;;;;;6.15;77.70;98878.86;105518;1262;96689;-78
2024/03/01 06:25:09;;;;;;;63.50;28.00;;;;;;;6.15;77.68;98880.58;106277;1253;110241;-77
2024/03/01 06:28:31;;;;;;;60.50;26.10;;;;;;;6.19;77.64;98872.27;105280;1260;96868;-78
2024/03/01 06:31:41;;;;;;;67.10;30.70;;;;;;;6.21;77.87;98868.47;105674;1254;107731;-79
2024/03/01 06:34:24;;;;;;;66.10;30.10;;;;;;;6.22;77.90;98875.94;105413;1257;97521;-80
2024/03/01 06:37:42;;;;;;;;;;;;;;;;;;;;;
2024/03/01 06:40:27;;;;;;;63.90;28.90;;;;;;;6.24;77.74;98873.02;105651;1254;109325;-77
2024/03/01 06:43:15;;;;;;;65.20;28.90;;;;;;;6.25;77.85;98861.35;105460;1254;96609;-79
2024/03/01 06:46:26;;;;;;;56.70;26.50;;;;;;;6.30;78.01;98864.95;107010;1254;107557;-78
2024/03/01 06:52:54;;;;;;;62.00;27.10;;;;;;;6.33;77.78;98871.28;105264;1267;97099;-78
2024/03/01 06:56:14;;;;;;;;;;;;;;;;;;;;;
2024/03/01 07:00:06;;;;;;;49.30;24.80;;;;;;;6.36;78.05;98874.30;105669;1264;97071;-76
2024/03/01 07:06:49;;;;;;;64.70;28.30;;;;;;;6.40;78.01;98861.70;105085;1257;96586;-80
2024/03/01 07:10:19;;;;;;;;;;;;;;;6.43;78.03;98860.46;105628;1259;96638;-76
2024/03/01 07:13:28;;;;;;;;;;;;;;;;;;;;;
2024/03/01 07:16:41;;;;;;;;;;;;;;;;;;;;;
2024/03/01 07:19:55;;;;;;;51.20;24.10;;;;;;;6.48;78.20;98865.49;105725;1266;108999;-76
2024/03/01 07:22:24;;;;;;;58.60;27.20;;;;;;;6.50;77.99;98858.49;105558;1254;97091;-79
2024/03/01 07:25:35;;;;;;;61.70;27.00;;;;;;;6.53;78.27;98852.00;105387;1257;97432;-77
2024/03/01 07:28:16;;;;;;;;;;;;;;;;;;;;;
2024/03/01 07:32:12;;;;;;;58.40;27.80;;;;;;;6.58;78.37;98846.20;105708;1262;98423;-77
2024/03/01 07:35:03;;;;;;;;;;;;;;;6.61;78.38;98841.67;105429;1265;108101;-79
2024/03/01 07:38:14;;;;;;;;;;;;;;;;;;;;;
2024/03/01 07:40:57;;;;;;;56.10;26.10;;;;;;;6.64;78.29;98831.60;105242;1266;96588;-79
2024/03/01 07:51:33;;;;;;;55.30;25.20;;;;;;;6.79;78.44;98838.99;105296;1266;108606;-78
2024/03/01 07:55:25;;;;;;;62.70;26.80;;;;;;;6.84;78.35;98842.88;105587;1258;97793;-78
2024/03/01 07:58:13;;;;;;;62.80;27.40;;;;;;;6.89;78.42;98833.27;105432;1256;96673;-77
2024/03/01 08:01:24;;;;;;;60.10;26.90;;;;;;;6.92;78.45;98835.74;105250;1259;109221;-79
2024/03/01 08:04:41;;;;;;;64.80;29.20;;;;;;;6.94;78.41;98827.98;105641;1255;96592;-78
2024/03/01 08:08:35;;;;;;;;;;;;;;;;;;;;;
2024/03/01 08:11:42;;;;;;;65.20;29.10;;;;;;;7.06;78.49;98825.55;105459;1262;96688;-76
2024/03/01 08:15:23;;;;;;;;;;;;;;;;;;;;;
2024/03/01 08:18:43;;;;;;;60.50;28.20;;;;;;;7.05;78.33;98831.24;105350;1260;111220;-78
2024/03/01 08:25:49;;;;;;;62.60;26.40;;;;;;;7.05;78.61;98821.89;104914;1274;107845;-78
2024/03/01 08:29:50;;;;;;;;;;;;;;;;;;;;;
2024/03/01 08:32:52;;;;;;;59.40;26.80;;;;;;;7.13;78.42;98821.70;106019;1258;97027;-78
2024/03/01 08:36:06;;;;;;;;;;;;;;;;;;;;;
2024/03/01 08:40:09;;;;;;;;;;;;;;;;;;;;;
2024/03/01 08:44:18;;;;;;;;;;;;;;;;;;;;;
2024/03/01 08:47:25;;;;;;;;;;;;;;;;;;;;;
2024/03/01 08:51:42;;;;;;;;;;;;;;;;;;;;;
2024/03/01 08:54:28;;;;;;;59.20;26.10;;;;;;;7.48;78.58;98828.59;104473;1265;111269;-78
2024/03/01 09:02:45;;;;;;;;;;;;;;;;;;;;;
2024/03/01 09:06:24;;;;;;;;;;;;;;;;;;;;;
2024/03/01 09:09:45;;;;;;;57.60;25.80;;;;;;;7.70;78.66;98830.83;105265;1257;96635;-78
2024/03/01 09:12:54;;;;;;;50.60;24.10;;;;;;;7.76;78.93;98824.48;105503;1254;110270;-78
2024/03/01 09:16:49;;;;;;;53.70;23.90;;;;;;;7.81;78.68;98817.81;105432;1254;96670;-77
2024/03/01 09:25:14;;;;;;;;;;;;;;;;;;;;;
2024/03/01 09:28:58;;;;;;;;;;;;;;;;;;;;;
2024/03/01 09:32:18;;;;;;;;;;;;;;;;;;;;;
2024/03/01 09:35:39;;;;;;;;;;;;;;;;;;;;;
2024/03/01 09:39:03;;;;;;;54.10;23.80;;;;;;;7.70;78.59;98808.95;104928;1262;109114;-77
2024/03/01 09:47:16;;;;;;;;;;;;;;;;;;;;;
2024/03/01 09:55:15;;;;;;;;;;;;;;;;;;;;;
2024/03/01 10:02:31;;;;;;;57.80;24.30;;;;;;;7.86;78.61;98815.39;103621;1290;96699;-78
2024/03/01 10:05:34;;;;;;;51.40;22.20;;;;;;;7.88;78.45;98813.10;104067;1280;96839;-78
2024/03/01 10:08:57;;;;;;;49.20;22.80;;;;;;;7.90;78.72;98810.82;104781;1276;111854;-77
2024/03/01 10:11:49;;;;;;;;;;;;;;;;;;;;;
2024/03/01 10:15:44;;;;;;;;;;;;;;;;;;;;;
2024/03/01 10:19:00;;;;;;;55.40;25.00;;;;;;;7.96;78.53;98787.14;104730;1263;96591;-78
2024/03/01 10:22:48;;;;;;;55.50;24.40;;;;;;;7.94;78.58;98785.38;105277;1257;96608;-78
2024/03/01 10:43:11;;;;;;;;;;;;;;;;;;;;;
2024/03/01 11:18:43;;;;;;;48.30;22.20;;;;;;;8.86;77.94;98753.50;107659;1233;656480;-78
2024/03/01 11:22:32;;;;;;;47.80;23.70;;;;;;;8.72;77.94;98745.13;107430;1253;94482;-78
2024/03/01 11:25:21;;;;;;;52.00;22.30;;;;;;;8.65;77.86;98743.33;107838;1240;105691;-77
2024/03/01 11:28:10;;;;;;;40.30;20.20;;;;;;;8.62;77.96;98755.20;108208;1248;95244;-78
2024/03/01 11:31:57;;;;;;;42.10;20.00;;;;;;;8.65;78.05;98753.75;108476;1239;109028;-78
2024/03/01 11:34:38;;;;;;;42.30;19.70;;;;;;;8.61;77.80;98752.05;108738;1231;95221;-77
2024/03/01 11:37:44;;;;;;;46.90;22.50;;;;;;;8.60;77.85;98753.70;108638;1235;94269;-77
2024/03/01 11:40:56;;;;;;;;;;;;;;;;;;;;;
2024/03/01 11:43:48;;;;;;;42.60;19.90;;;;;;;8.62;77.72;98761.92;108739;1241;95024;-76
2024/03/01 11:47:06;;;;;;;40.00;18.00;;;;;;;8.66;77.86;98764.63;108839;1243;107145;-77
2024/03/01 11:49:45;;;;;;;44.50;20.80;;;;;;;8.69;77.76;98764.42;108404;1244;95305;-77
2024/03/01 11:52:24;;;;;;;41.00;19.40;;;;;;;8.71;77.69;98767.48;108429;1243;95200;-77
2024/03/01 11:55:50;;;;;;;45.60;21.60;;;;;;;8.70;77.60;98764.77;108247;1243;108254;-77
2024/03/01 11:58:49;;;;;;;;;;;;;;;;;;;;;
2024/03/01 12:02:06;;;;;;;49.80;22.40;;;;;;;8.73;77.42;98766.67;107584;1243;108953;-75
2024/03/01 12:04:57;;;;;;;43.50;20.90;;;;;;;8.72;77.34;98766.32;107515;1242;95320;-77
2024/03/01 12:07:50;;;;;;;47.80;21.40;;;;;;;8.74;77.38;98763.52;108520;1234;95149;-77
2024/03/01 12:11:08;;;;;;;50.30;21.30;;;;;;;8.69;77.12;98758.44;108805;1234;108746;-77
2024/03/01 12:14:24;;;;;;;;;;;;;;;;;;;;;
2024/03/01 12:29:01;;;;;;;49.30;24.00;;;;;;;9.09;76.42;98757.73;104835;1268;650212;-76
2024/03/01 12:32:27;;;;;;;49.80;21.30;;;;;;;8.96;76.52;98754.58;101655;1245;9333906;-77
2024/03/01 12:35:25;;;;;;;47.50;21.30;;;;;;;8.86;76.57;98746.41;108049;1240;95954;-78
2024/03/01 12:38:39;;;;;;;;;;;;;;;;;;;;;
2024/03/01 12:42:12;;;;;;;45.80;20.90;;;;;;;8.70;76.56;98743.02;108005;1241;94403;-77
2024/03/01 12:45:27;;;;;;;44.00;21.40;;;;;;;8.65;76.59;98738.70;108147;1244;94243;-77
2024/03/01 12:48:32;;;;;;;45.70;19.50;;;;;;;8.57;76.36;98752.02;108395;1238;104926;-78
2024/03/01 12:51:25;;;;;;;;;;;;;;;;;;;;;
2024/03/01 12:54:52;;;;;;;42.80;18.80;;;;;;;8.43;76.18;98751.89;108109;1246;108174;-76
2024/03/01 13:09:14;;;;;;;37.60;16.80;;;;;;;8.34;76.31;98733.20;108242;1235;98534;-77
2024/03/01 13:13:02;;;;;;;45.90;19.10;;;;;;;8.38;76.13;98731.37;102527;1289;637626;-77
2024/03/01 13:16:10;;;;;;;39.60;18.50;;;;;;;8.26;75.95;98728.31;104745;1264;94335;-77
2024/03/01 13:19:28;;;;;;;40.60;17.30;;;;;;;8.21;75.99;98729.00;104624;1267;94351;-78
2024/03/01 13:22:31;;;;;;;;;;;;;;;;;;;;;
2024/03/01 13:25:24;;;;;;;36.20;17.00;;;;;;;8.14;75.88;98734.73;97669;1271;9299268;-75
2024/03/01 13:28:25;;;;;;;44.20;19.80;;;;;;;8.11;75.91;98737.25;104735;1264;94745;-75
2024/03/01 13:31:02;;;;;;;41.10;16.80;;;;;;;8.09;75.99;98741.43;105268;1254;108194;-77
2024/03/01 13:33:39;;;;;;;40.50;17.10;;;;;;;8.09;76.08;98740.02;105360;1270;95237;-76
2024/03/01 13:39:55;;;;;;;43.70;18.20;;;;;;;8.04;75.76;98743.02;105898;1258;94405;-81
2024/03/01 13:42:43;;;;;;;32.30;16.00;;;;;;;8.00;75.91;98742.73;105589;1254;95743;-84
2024/03/01 13:45:17;;;;;;;42.90;16.50;;;;;;;8.01;75.84;98740.74;105384;1254;108605;-81
2024/03/01 13:47:51;;;;;;;35.70;15.60;;;;;;;8.00;75.90;98750.37;105625;1257;95237;-82
2024/03/01 13:50:30;;;;;;;38.90;16.10;;;;;;;7.98;75.82;98752.39;105260;1258;107604;-79
2024/03/01 13:53:01;;;;;;;35.40;17.00;;;;;;;7.99;75.90;98747.23;105543;1257;95243;-88
2024/03/01 13:55:44;;;;;;;34.10;14.50;;;;;;;7.99;75.77;98748.98;105681;1258;95286;-79
2024/03/01 13:58:21;;;;;;;34.40;16.30;;;;;;;7.97;75.62;98743.82;105420;1259;107662;-82
2024/03/01 14:09:54;;;;;;;33.50;14.60;;;;;;;8.00;75.78;98756.85;105617;1257;96148;-83
2024/03/01 14:12:22;;;;;;;30.30;14.20;;;;;;;7.99;75.62;98747.41;105266;1254;95249;-80
2024/03/01 14:14:50;;;;;;;32.60;15.60;;;;;;;7.93;75.48;98743.36;105382;1254;108051;-80
2024/03/01 14:17:19;;;;;;;30.10;14.20;;;;;;;7.87;75.47;98750.69;105501;1258;97417;-79
2024/03/01 14:19:47;;;;;;;29.90;15.10;;;;;;;7.81;75.48;98754.56;105424;1256;106720;-79
2024/03/01 14:22:17;;;;;;;31.20;15.30;;;;;;;7.76;75.54;98751.02;105445;1267;95256;-80
2024/03/01 14:24:47;;;;;;;32.70;16.50;;;;;;;7.71;75.53;98746.45;105360;1256;95941;-81
2024/03/01 14:27:14;;;;;;;34.80;16.70;;;;;;;7.65;75.49;98736.23;105721;1253;108602;-80
2024/03/01 14:29:43;;;;;;;28.60;14.30;;;;;;;7.64;75.55;98735.64;105173;1254;95231;-84
2024/03/01 14:32:14;;;;;;;27.40;13.30;;;;;;;7.64;75.55;98744.27;105604;1257;107617;-80
2024/03/01 14:34:43;;;;;;;28.90;14.60;;;;;;;7.62;75.58;98748.08;105595;1254;95305;-80
2024/03/01 14:37:24;;;;;;;33.80;16.40;;;;;;;7.59;75.35;98752.99;105462;1258;96174;-81
2024/03/01 14:39:53;;;;;;;29.50;13.90;;;;;;;7.58;75.59;98758.20;105351;1254;108650;-81
2024/03/01 14:42:23;;;;;;;26.10;13.50;;;;;;;7.57;75.50;98767.62;105286;1258;95539;-70
2024/03/01 14:44:52;;;;;;;26.70;13.00;;;;;;;7.57;75.50;98776.23;105567;1255;107603;-73
2024/03/01 14:47:24;;;;;;;26.40;13.90;;;;;;;7.58;75.62;98777.23;105264;1254;95182;-73
2024/03/01 14:49:55;;;;;;;30.10;14.80;;;;;;;7.59;75.52;98787.63;105557;1258;95315;-70
2024/03/01 14:52:23;;;;;;;30.30;14.60;;;;;;;7.59;75.58;98787.25;105463;1254;108574;-71
2024/03/01 14:54:51;;;;;;;33.40;15.00;;;;;;;7.60;75.60;98783.30;105488;1254;96213;-73
2024/03/01 14:57:18;;;;;;;33.00;15.50;;;;;;;7.61;75.48;98780.79;105610;1253;108772;-71
2024/03/01 14:59:46;;;;;;;29.60;13.80;;;;;;;7.62;75.60;98777.77;105435;1257;95916;-73
2024/03/01 15:02:16;;;;;;;31.10;14.50;;;;;;;7.62;75.47;98774.21;105494;1258;95261;-72
2024/03/01 15:04:44;;;;;;;29.00;14.50;;;;;;;7.60;75.55;98770.92;105314;1254;110260;-72
2024/03/01 15:07:14;;;;;;;30.90;15.70;;;;;;;7.59;75.54;98761.16;105513;1257;95885;-73
2024/03/01 15:09:44;;;;;;;27.50;14.10;;;;;;;7.57;75.62;98759.34;105585;1260;109258;-74
2024/03/01 15:12:12;;;;;;;28.70;14.20;;;;;;;7.56;75.51;98741.37;105479;1260;95400;-73
2024/03/01 15:14:41;;;;;;;31.60;15.50;;;;;;;7.56;75.59;98740.36;105610;1258;95347;-72
2024/03/01 15:17:09;;;;;;;27.50;14.60;;;;;;;7.55;75.59;98743.07;105561;1253;108592;-71
2024/03/01 15:19:38;;;;;;;31.70;14.30;;;;;;;7.53;75.65;98743.71;105570;1254;95929;-75
2024/03/01 15:22:11;;;;;;;29.50;14.90;;;;;;;7.51;75.69;98746.66;105356;1254;107014;-72
2024/03/01 15:24:39;;;;;;;30.60;14.30;;;;;;;7.50;75.51;98747.83;105626;1260;95301;-72
2024/03/01 15:27:07;;;;;;;27.60;14.70;;;;;;;7.51;75.66;98752.34;105393;1254;95270;-72
2024/03/01 15:29:35;;;;;;;23.40;12.10;;;;;;;7.50;75.59;98750.40;105571;1257;108654;-70
2024/03/01 15:32:03;;;;;;;26.60;13.90;;;;;;;7.52;75.71;98751.92;105259;1258;96081;-72